MET: Información y Pronóstico Aeronáutico

MET: Información y Pronóstico Aeronáutico

///////////////////////////////////////////////////////////////////////////////////////////////////////////////////////////////////////////////////////////////////////////////////////////////////////////////////////////////////////////////

23 DE NOVIEMBRE 2017

INFORMACION METEOROLOGICA AERONAUTICA (METAR) 12:00 UTC

Aeropuerto AEROPARQUE J. NEWBERY

23 - 12:00 METAR SABE 231200Z 31014G24KT CAVOK 23/08 Q1006 =

Aeropuerto BAHIA BLANCA

23 - 12:00 METAR SAZB 231200Z 25010KT CAVOK 16/08 Q1007 =

Aeropuerto BARILOCHE

23 - 12:00 METAR SAZS 231200Z 28017KT 9000 NSC 09/M01 Q1016 =

Aeropuerto EL CALAFATE

23 - 12:00 METAR SAWC 231200Z 25015KT CAVOK 08/M06 Q1015 =

Aeropuerto EZEIZA

23 - 12:00 METAR SAEZ 231200Z 31017KT CAVOK 23/10 Q1005 =

Aeropuerto IGUAZU/CATARATAS

23 - 12:00 METAR SARI 231200Z 05004KT CAVOK 20/13 Q1014 =

Aeropuerto JUJUY

23 - 12:00 METAR SASJ 231200Z 00000KT CAVOK 23/10 Q1015 =

Aeropuerto MAR DEL PLATA

23 - 12:00 METAR SAZM 231200Z 23008KT 180V270 CAVOK 15/09 Q1004 =

Aeropuerto MENDOZA

23 - 12:00 METAR SAME 231200Z 18013KT CAVOK 27/M04 Q1009 =

Aeropuerto CHAPELCO

23 - 12:00 METAR SAZY 231200Z 25015KT CAVOK 09/02 Q1015 =

Aeropuerto COMODORO RIVADAVIA

23 - 12:00 METAR SAVC 231200Z 23016G28KT 9999 FEW035 10/M06 Q1015 =

Aeropuerto CORDOBA

23 - 12:00 METAR SACO 231200Z 31013KT CAVOK 29/08 Q1008 =

Aeropuerto NEUQUEN

23 - 12:00 SAZN 231200Z 23009G22KT CAVOK 17/03 Q1013 =

Aeropuerto POSADAS

23 - 12:00 METAR SARP 231200Z 07005KT CAVOK 23/10 Q1014 =

Aeropuerto RESISTENCIA

23 - 12:00 METAR SARE 231200Z 04009KT CAVOK 23/07 Q1012 =

Aeropuerto RIO GRANDE

23 - 12:00 METAR SAWE 231200Z 27024G34KT CAVOK 07/M02 Q1004 =

Aeropuerto ROSARIO

23 - 12:00 METAR SAAR 231200Z 32021KT 9000 NSC 22/07 Q1008 =

Aeropuerto SALTA

23 - 12:00 METAR SASA 231200Z 09004KT CAVOK 18/11 Q1016 =

Aeropuerto SAN FERNANDO

23 - 12:00 METAR SADF 231200Z 32012KT CAVOK 22/10 Q1006 =

Aeropuerto SANTA ROSA

23 - 12:00 METAR SAZR 231200Z 25005KT CAVOK 18/10 Q1007 =

Aeropuerto TRELEW

23 - 12:00 METAR SAVT 231200Z 23024G37KT 9999 FEW030 11/M03 Q1011 =

Aeropuerto TUCUMAN

23 - 12:00 METAR SANT 231200Z 34016KT CAVOK 25/14 Q1010 =

Aeropuerto USHUAIA

23 - 12:00 METAR SAWH 231200Z 36005KT 9999 BKN035 BKN100 04/01 Q1002 =

 

PRONOSTICO DE AERODROMO (TAF) 11:00 UTC

Estación AEROPARQUE J. NEWBERY

23 - 11:00 TAF SABE 231100Z 2312/2412 30015KT 9999 SCT040 TX30/2318Z TN11/2409Z TEMPO 2317/2322 8000 TSRA BKN035 FEW50CB BECMG 2320/2323 20015G25KT 9999 SCT040 BECMG 2406/2409 18015KT CAVOK =

Estación BAHIA BLANCA

23 - 11:00 TAF SAZB 231100Z 2312/2412 20015KT CAVOK TX21/2319Z TN07/2409Z BECMG 2313/2315 20020G30KT BECMG 2318/2322 20015KT BECMG 2403/2405 27005KT =

Estación BARILOCHE

23 - 11:00 TAF SAZS 231100Z 2312/2412 18015KT CAVOK TX18/2319Z TN00/2310Z BECMG 2318/2320 27015KT BECMG 2401/2403 VRB03K BECMG 2409/2412 25005KT =

Estación EL CALAFATE

23 - 11:00 TAF SAWC 231100Z 2312/2412 27020KT 9999 FEW030 SCT090 TX11/2318Z TN06/2411Z =

Estación EZEIZA

23 - 11:00 TAF SAEZ 231100Z 2312/2412 31010G20KT CAVOK TX31/2318Z TN06/2408Z BECMG 2315/2318 27015KT 9999 SCT030 FEW050TCU PROB30 TEMPO 2318/2400 20020G30KT 9000 -SHRA BKN040 FEW050CB BECMG 2406/2409 18010KT CAVOK =

Estación IGUAZU/CATARATAS

23 - 11:00 TAF SARI 231100Z 2312/2412 05005KT CAVOK TX30/2318Z TN13/2409Z =

Estación JUJUY

23 - 11:00 TAF SASJ 231100Z 2312/2412 32005KT CAVOK TX32/2319Z TN17/2410Z BECMG 2314/2317 05010KT 9999 SCT030 FEW040TCU =

Estación MAR DEL PLATA

23 - 11:00 TAF SAZM 231100Z 2312/2412 23010KT CAVOK TX22/2318Z TN06/2410Z PROB40 TEMPO 2318/2321 23015G25KT SHRA FEW030TCU BKN040 BECMG 2406/2409 23020KT 8000 RADZ SCT030 BKN035 =

Estación MENDOZA

23 - 11:00 TAF SAME 231100Z 2312/2412 14010KT 9999 FEW040 TX33/2320Z TN13/2410Z =

Estación CHAPELCO

23 - 11:00 TAF SAZY 231100Z 2312/2412 25020KT CAVOK TX23/2320Z TN04/2409Z BECMG 2321/2323 25010KT BECMG 2402/2404 VRB03KT =

Estación COMODORO RIVADAVIA

23 - 11:00 TAF SAVC 231100Z 2312/2412 21020G35KT 9999 BKN025 TX14/2318Z TN09/2411Z BECMG 2315/2317 24015KT SCT030 PROB40 TEMPO 2319/2402 02010KT BECMG 2403/2405 27015KT CAVOK =

Estación CORDOBA

23 - 11:00 TAF SACO 231100Z 2312/2412 29010KT CAVOK TX36/2318Z TN13/2410Z BECMG 2313/2316 29015G25KT 9999 SCT030 BECMG 2322/2401 18015KT 7000 DU BKN030 FEW040CB =

Estación NEUQUEN

23 - 11:00 TAF SAZN 231100Z 2312/2412 20015KT CAVOK TX25/2320Z TN14/2310Z BECMG 2401/2403 12005KT =

Estación POSADAS

23 - 11:00 TAF SARP 231100Z 2312/2412 07005KT CAVOK TX30/2318Z TN13/2409Z =

Estación RESISTENCIA

23 - 11:00 TAF SARE 231100Z 2312/2412 05005KT CAVOK TX30/2318Z TN14/2409Z =

Estación RIO GRANDE

23 - 11:00 TAF SAWE 231100Z 2312/2412 27020KT 9999 FEW020 TX10/2318Z TN05/2411Z BECMG 2315/2317 25025G35KT BKN020 =

Estación ROSARIO

23 - 11:00 TAF SAAR 231100Z 2312/2412 32020KT CAVOK TX34/2318Z TN12/2409Z BECMG 2319/2322 18010KT 7000 TSRA BKN040 FEW050CB BECMG 2407/2410 14010G20KT 8000 -RA BKN030 =

Estación SALTA

23 - 11:00 TAF SASA 231100Z 2312/2412 36005KT CAVOK TX30/2319Z TN14/2410Z BECMG 2314/2317 05010KT 9999 SCT025 FEW030TCU =

Estación SAN FERNANDO

23 - 11:00 TAF SADF 231100Z 2312/2412 32015G25KT CAVOK TX30/2318Z TN11/2409Z BECMG 2315/2317 9999 SCT030 FEW035TCU BECMG 2320/2322 23015KT 7000 SHRA BKN030 SCT035TCU BECMG 2322/2400 18020KT 9999 SCT030 BECMG 2402/2404 18015KT CAVOK =

Estación SANTA ROSA

23 - 11:00 TAF SAZR 231100Z 2312/2412 20015G25KT CAVOK TX27/2319Z TN06/2409Z BECMG 2323/2401 07005KT =

Estación TRELEW

23 - 11:00 TAF SAVT 231100Z 2312/2412 20025G35KT 9999 SHRA FEW020 SCT025 BKN045 TX14/2318Z TN08/2411Z BECMG 2315/2317 23020G30KT NSW SCT025 BECMG 2400/2402 18010KT BECMG 2406/2408 36010KT CAVOK =

Estación TUCUMAN

23 - 11:00 TAF SANT 231100Z 2312/2412 34015KT CAVOK TX36/2319Z TN22/2411Z BECMG 2313/2316 18005KT CAVOK BECMG 2317/2320 07010KT 9999 SCT040 FEW050TCU =

Estación USHUAIA

23 - 11:00 TAF SAWH 231100Z 2312/2412 23020G30KT 9999 -RA SCT015 SCT025 BKN060 TX10/2318Z TN04/2411Z BECMG 2313/2315 27018KT SCT025 BNN060 BECMG 2318/2320 30020KT BECMG 2400/2402 25020G35KT SHRA BKN020 BKN050 =